Time;durP1;ratioP1;P1;durP2;ratioP2;P2;SDS_P1;SDS_P2;PMS_P1;PMS_P2;Temp;Humidity;BMP_temperature;BMP_pressure;BME280_temperature;BME280_humidity;BME280_pressure;Samples;Min_cycle;Max_cycle;Signal;HPM_P1;HPM_P2
2021/06/01 00:00:35;;;;;;;11.77;8.82;;;11.20;90.20;;;;;;2055795;28;20041;-74
2021/06/01 00:01:38;;;;;;;11.73;8.70;;;11.10;90.30;;;;;;2064366;28;20034;-74
2021/06/01 00:02:39;;;;;;;10.13;8.38;;;11.10;90.40;;;;;;2064459;28;20493;-74
2021/06/01 00:03:40;;;;;;;11.60;8.18;;;11.10;90.30;;;;;;2064488;28;20069;-76
2021/06/01 00:04:40;;;;;;;9.90;7.97;;;11.10;90.40;;;;;;2064056;28;20541;-75
2021/06/01 00:05:41;;;;;;;10.98;8.20;;;11.00;90.30;;;;;;2064603;28;20027;-74
2021/06/01 00:06:42;;;;;;;9.75;8.00;;;11.10;90.50;;;;;;2064486;28;20109;-74
2021/06/01 00:07:43;;;;;;;11.38;8.63;;;11.00;90.40;;;;;;2064597;28;20030;-74
2021/06/01 00:08:44;;;;;;;11.38;8.27;;;11.00;90.50;;;;;;2064612;28;20025;-74
2021/06/01 00:09:45;;;;;;;11.35;8.73;;;11.00;90.70;;;;;;2064531;28;20061;-75
2021/06/01 00:10:45;;;;;;;10.43;8.30;;;11.00;90.60;;;;;;2064700;28;20018;-74
2021/06/01 00:11:47;;;;;;;12.25;8.50;;;11.00;90.70;;;;;;2065260;28;20526;-74
2021/06/01 00:12:48;;;;;;;11.35;8.35;;;11.00;90.70;;;;;;2066394;28;20101;-74
2021/06/01 00:13:49;;;;;;;10.65;8.50;;;10.90;90.70;;;;;;2057231;28;20498;-75
2021/06/01 00:14:49;;;;;;;11.15;8.35;;;10.90;90.80;;;;;;2056740;28;20490;-74
2021/06/01 00:15:50;;;;;;;10.75;8.30;;;10.90;90.80;;;;;;2057232;28;20507;-74
2021/06/01 00:16:51;;;;;;;10.50;8.60;;;10.90;90.80;;;;;;2065699;28;20030;-73
2021/06/01 00:17:51;;;;;;;12.35;8.68;;;10.90;91.00;;;;;;2065794;28;20559;-74
2021/06/01 00:18:52;;;;;;;11.30;8.40;;;10.90;91.10;;;;;;2066081;28;20028;-73
2021/06/01 00:19:53;;;;;;;10.38;8.60;;;10.90;91.10;;;;;;2057126;28;20031;-73
2021/06/01 00:20:54;;;;;;;12.40;8.68;;;10.90;91.10;;;;;;2057178;28;20114;-74
2021/06/01 00:21:55;;;;;;;11.13;8.75;;;10.90;91.20;;;;;;2065856;28;20037;-73
2021/06/01 00:22:55;;;;;;;10.18;8.10;;;10.90;91.20;;;;;;2066008;28;20042;-73
2021/06/01 00:23:56;;;;;;;12.45;8.30;;;10.90;91.30;;;;;;2065908;28;20038;-74
2021/06/01 00:24:57;;;;;;;10.55;8.20;;;10.90;91.30;;;;;;2056634;28;20030;-74
2021/06/01 00:25:57;;;;;;;12.63;8.43;;;10.90;91.20;;;;;;2057084;28;20030;-75
2021/06/01 00:26:58;;;;;;;10.43;8.32;;;10.80;91.30;;;;;;2065764;28;20022;-74
2021/06/01 00:27:58;;;;;;;12.20;8.85;;;10.80;91.30;;;;;;2065848;28;20022;-74
2021/06/01 00:28:59;;;;;;;11.05;8.02;;;10.90;91.40;;;;;;2065537;28;20524;-74
2021/06/01 00:29:59;;;;;;;10.52;8.30;;;10.80;91.40;;;;;;2065822;28;20096;-74
2021/06/01 00:31:00;;;;;;;9.38;7.88;;;10.80;91.40;;;;;;2065775;28;20101;-74
2021/06/01 00:32:01;;;;;;;10.60;7.95;;;10.80;91.50;;;;;;2057039;28;20039;-73
2021/06/01 00:33:02;;;;;;;10.40;8.43;;;10.80;91.50;;;;;;2056892;28;20030;-74
2021/06/01 00:34:04;;;;;;;11.07;8.60;;;10.80;91.50;;;;;;2056985;28;20138;-73
2021/06/01 00:35:05;;;;;;;9.70;8.50;;;10.80;91.40;;;;;;2063867;28;20551;-73
2021/06/01 00:36:07;;;;;;;11.50;8.38;;;10.80;91.50;;;;;;2065576;28;20026;-73
2021/06/01 00:37:07;;;;;;;11.25;8.38;;;10.80;91.50;;;;;;2065882;28;20034;-74
2021/06/01 00:38:08;;;;;;;11.27;8.82;;;10.80;91.40;;;;;;2065437;28;20035;-73
2021/06/01 00:39:09;;;;;;;10.52;8.73;;;10.80;91.50;;;;;;2065836;28;20033;-73
2021/06/01 00:40:10;;;;;;;10.23;8.57;;;10.70;91.40;;;;;;2066775;28;20457;-74
2021/06/01 00:41:11;;;;;;;12.45;9.43;;;10.70;91.50;;;;;;2067184;28;20034;-75
2021/06/01 00:42:11;;;;;;;12.10;8.57;;;10.70;91.60;;;;;;2066783;28;20030;-73
2021/06/01 00:43:12;;;;;;;11.48;8.85;;;10.70;91.60;;;;;;2066954;28;20030;-75
2021/06/01 00:44:13;;;;;;;12.18;9.27;;;10.70;91.70;;;;;;2065626;28;20120;-73
2021/06/01 00:45:18;;;;;;;12.15;9.38;;;10.70;91.70;;;;;;2065780;28;20026;-74
2021/06/01 00:46:19;;;;;;;13.85;9.20;;;10.60;91.70;;;;;;2065923;28;20053;-75
2021/06/01 00:47:19;;;;;;;10.88;9.10;;;10.60;91.80;;;;;;2065806;28;20034;-74
2021/06/01 00:48:20;;;;;;;12.02;8.95;;;10.60;91.80;;;;;;2066018;28;20042;-74
2021/06/01 00:49:21;;;;;;;11.70;9.23;;;10.60;91.80;;;;;;2065926;28;20038;-75
2021/06/01 00:50:24;;;;;;;10.90;9.00;;;10.60;91.90;;;;;;2065572;28;20030;-73
2021/06/01 00:51:25;;;;;;;11.25;9.15;;;10.60;92.00;;;;;;2065567;28;20060;-73
2021/06/01 00:52:26;;;;;;;11.65;9.43;;;10.60;92.40;;;;;;2065762;28;20042;-74
2021/06/01 00:53:27;;;;;;;12.43;9.38;;;10.60;92.10;;;;;;2065673;28;20026;-74
2021/06/01 00:54:28;;;;;;;13.32;9.60;;;10.60;92.20;;;;;;2056530;28;20031;-74
2021/06/01 00:55:28;;;;;;;11.98;8.82;;;10.50;92.30;;;;;;2056759;28;20061;-74
2021/06/01 00:56:33;;;;;;;11.30;9.05;;;10.50;92.30;;;;;;2064857;28;20111;-74
2021/06/01 00:57:34;;;;;;;12.02;8.77;;;10.60;92.40;;;;;;2056995;28;20046;-75
2021/06/01 00:58:36;;;;;;;12.25;9.25;;;10.50;92.40;;;;;;2056960;28;20030;-74
2021/06/01 00:59:36;;;;;;;12.00;8.77;;;10.50;92.40;;;;;;2065768;28;20100;-73
2021/06/01 01:01:41;;;;;;;11.48;8.77;;;10.50;92.40;;;;;;2065531;28;20030;-74
2021/06/01 01:02:41;;;;;;;11.43;9.05;;;10.40;92.30;;;;;;2065642;28;20018;-74
2021/06/01 01:03:42;;;;;;;10.93;8.85;;;10.40;92.30;;;;;;2065517;28;20022;-74
2021/06/01 01:04:43;;;;;;;9.82;8.82;;;10.40;92.30;;;;;;2062475;28;20030;-74
2021/06/01 01:05:48;;;;;;;10.65;8.40;;;10.40;92.50;;;;;;2057409;28;20026;-74
2021/06/01 01:07:21;;;;;;;12.02;9.50;;;10.30;92.50;;;;;;2059081;28;20037;-74
2021/06/01 01:09:35;;;;;;;12.45;9.63;;;10.30;92.60;;;;;;2058220;28;20058;-74
2021/06/01 01:10:38;;;;;;;11.75;9.38;;;10.30;92.80;;;;;;2065598;28;20489;-74
2021/06/01 01:11:50;;;;;;;12.68;9.07;;;10.30;92.90;;;;;;2065075;28;20014;-74
2021/06/01 01:12:55;;;;;;;10.73;8.75;;;10.30;92.90;;;;;;2056871;28;20466;-74
2021/06/01 01:13:59;;;;;;;15.73;9.38;;;10.30;92.90;;;;;;2057227;28;20023;-74
2021/06/01 01:15:03;;;;;;;9.73;8.50;;;10.20;93.00;;;;;;2065067;28;20029;-73
2021/06/01 01:16:06;;;;;;;11.68;8.68;;;10.30;93.00;;;;;;2064885;28;20018;-75
2021/06/01 01:17:13;;;;;;;10.95;8.80;;;10.30;93.00;;;;;;2065368;28;20700;-74
2021/06/01 01:18:18;;;;;;;11.45;9.35;;;10.20;92.90;;;;;;2065566;28;20025;-74
2021/06/01 01:19:40;;;;;;;11.73;9.00;;;10.20;92.90;;;;;;2065213;28;20559;-74
2021/06/01 01:21:00;;;;;;;12.13;9.00;;;10.30;92.90;;;;;;2064704;28;20533;-75
2021/06/01 01:22:00;;;;;;;9.90;8.52;;;10.30;92.90;;;;;;2056384;28;20174;-75
2021/06/01 01:23:06;;;;;;;11.70;8.70;;;10.20;92.80;;;;;;2056729;28;20768;-74
2021/06/01 01:24:25;;;;;;;11.75;8.93;;;10.20;92.80;;;;;;2056535;28;20105;-74
2021/06/01 01:25:37;;;;;;;11.65;8.85;;;10.20;92.70;;;;;;2059271;28;20509;-75
2021/06/01 01:26:52;;;;;;;10.88;8.93;;;10.20;92.80;;;;;;2065447;28;20492;-74
2021/06/01 01:28:04;;;;;;;12.75;9.50;;;10.10;92.90;;;;;;2065551;28;20439;-74
2021/06/01 01:29:21;;;;;;;11.20;9.07;;;10.20;93.30;;;;;;2065424;28;20033;-74
2021/06/01 01:30:24;;;;;;;11.52;9.02;;;10.10;93.20;;;;;;2065450;28;20486;-74
2021/06/01 01:31:39;;;;;;;13.57;8.90;;;10.10;93.20;;;;;;2056903;28;20027;-74
2021/06/01 01:32:58;;;;;;;12.38;9.27;;;10.10;93.30;;;;;;2058608;28;20089;-75
2021/06/01 01:34:00;;;;;;;12.18;9.70;;;10.10;93.40;;;;;;2056606;28;20584;-74
2021/06/01 01:35:02;;;;;;;11.90;9.38;;;10.10;93.50;;;;;;2054588;28;20090;-74
2021/06/01 01:36:06;;;;;;;14.10;9.82;;;10.10;93.60;;;;;;2065351;28;20041;-74
2021/06/01 01:37:07;;;;;;;12.35;9.45;;;10.10;93.50;;;;;;2060191;28;20019;-74
2021/06/01 01:38:08;;;;;;;13.98;9.40;;;10.10;93.50;;;;;;2056649;28;20051;-74
2021/06/01 01:39:10;;;;;;;12.73;9.05;;;10.00;93.50;;;;;;2065260;28;20406;-74
2021/06/01 01:40:11;;;;;;;10.77;8.73;;;10.00;93.50;;;;;;2065450;28;20018;-74
2021/06/01 01:41:13;;;;;;;9.90;8.45;;;10.00;93.50;;;;;;2056514;28;20696;-74
2021/06/01 01:42:16;;;;;;;10.65;8.10;;;10.00;93.50;;;;;;2056755;28;20444;-74
2021/06/01 01:43:20;;;;;;;10.70;8.60;;;10.00;93.50;;;;;;2056252;28;20031;-74
2021/06/01 01:44:23;;;;;;;12.18;8.45;;;10.00;93.60;;;;;;2056364;28;20049;-74
2021/06/01 01:45:27;;;;;;;10.90;8.70;;;10.00;93.60;;;;;;2065208;28;20042;-74
2021/06/01 01:49:57;;;;;;;10.40;8.15;;;9.90;93.70;;;;;;2062209;28;20027;-72
2021/06/01 01:51:16;;;;;;;9.38;7.65;;;9.90;93.70;;;;;;2056824;28;20081;-72
2021/06/01 01:52:17;;;;;;;10.45;8.23;;;9.90;93.70;;;;;;2057338;28;20109;-72
2021/06/01 01:53:18;;;;;;;13.18;8.57;;;9.90;93.70;;;;;;2056431;28;20111;-74
2021/06/01 01:54:22;;;;;;;11.25;8.32;;;9.90;93.70;;;;;;2055856;28;20418;-73
2021/06/01 01:55:24;;;;;;;10.82;8.27;;;9.90;93.70;;;;;;2056451;28;20038;-74
2021/06/01 01:56:34;;;;;;;12.05;8.32;;;9.90;93.70;;;;;;2056589;28;20483;-73
2021/06/01 01:57:37;;;;;;;9.70;8.07;;;9.90;93.70;;;;;;2065152;28;20030;-74
2021/06/01 01:58:38;;;;;;;9.57;8.10;;;9.90;93.70;;;;;;2065186;28;20037;-74
2021/06/01 01:59:40;;;;;;;10.55;7.97;;;9.80;93.80;;;;;;2065078;28;20014;-72
2021/06/01 02:00:41;;;;;;;9.73;7.68;;;9.80;93.80;;;;;;2065003;28;20113;-73
2021/06/01 02:01:46;;;;;;;11.75;8.25;;;9.80;93.90;;;;;;2056298;28;20030;-74
2021/06/01 02:02:47;;;;;;;10.70;7.93;;;9.80;93.90;;;;;;2057322;28;20082;-74
2021/06/01 02:03:50;;;;;;;8.98;7.80;;;9.80;93.80;;;;;;2065138;28;20030;-75
2021/06/01 02:04:51;;;;;;;11.57;8.50;;;9.80;93.80;;;;;;2048019;29;20042;-74
2021/06/01 02:05:52;;;;;;;10.02;8.13;;;9.80;93.70;;;;;;2056739;28;20026;-74
2021/06/01 02:06:53;;;;;;;9.30;7.68;;;9.80;93.60;;;;;;2061835;28;20577;-73
2021/06/01 02:07:54;;;;;;;9.85;8.10;;;9.80;93.50;;;;;;2064741;28;20466;-74
2021/06/01 02:08:57;;;;;;;9.45;7.93;;;9.70;93.60;;;;;;2056180;28;20113;-74
2021/06/01 02:09:59;;;;;;;10.48;7.80;;;9.70;93.70;;;;;;2056199;28;20027;-75
2021/06/01 02:10:59;;;;;;;9.63;8.02;;;9.70;93.70;;;;;;2056423;28;20133;-75
2021/06/01 02:12:00;;;;;;;10.27;7.60;;;9.70;93.90;;;;;;2056159;28;20031;-75
2021/06/01 02:13:01;;;;;;;10.98;7.88;;;9.70;93.90;;;;;;2056259;28;20042;-74
2021/06/01 02:14:03;;;;;;;11.68;8.38;;;9.70;93.90;;;;;;2064633;28;20035;-74
2021/06/01 02:15:08;;;;;;;9.02;7.70;;;9.60;93.90;;;;;;2064496;28;20093;-74
2021/06/01 02:16:09;;;;;;;10.10;7.93;;;9.60;93.90;;;;;;2064971;28;20034;-74
2021/06/01 02:17:09;;;;;;;10.60;8.10;;;9.60;93.90;;;;;;2064722;28;20036;-75
2021/06/01 02:18:11;;;;;;;10.63;8.10;;;9.60;94.10;;;;;;2056103;28;20126;-75
2021/06/01 02:19:14;;;;;;;9.95;7.88;;;9.50;94.10;;;;;;2056246;28;20039;-74
2021/06/01 02:20:16;;;;;;;9.52;7.80;;;9.50;94.20;;;;;;2056462;28;20368;-75
2021/06/01 02:21:34;;;;;;;10.35;8.05;;;9.50;94.40;;;;;;2056330;28;20027;-74
2021/06/01 02:24:02;;;;;;;14.63;7.80;;;9.50;94.40;;;;;;2064981;28;20478;-75
2021/06/01 02:25:11;;;;;;;11.43;7.95;;;9.50;94.40;;;;;;2047957;29;20027;-74
2021/06/01 02:26:28;;;;;;;8.98;7.90;;;9.50;94.50;;;;;;2050597;28;20023;-75
2021/06/01 02:27:40;;;;;;;9.60;7.63;;;9.40;94.30;;;;;;2064785;28;20034;-74
2021/06/01 02:28:51;;;;;;;10.80;8.10;;;9.50;94.40;;;;;;2064790;28;20113;-75
2021/06/01 02:30:04;;;;;;;9.65;7.80;;;9.50;94.50;;;;;;2064637;28;20049;-74
2021/06/01 02:31:09;;;;;;;11.48;7.95;;;9.40;94.50;;;;;;2055956;28;20490;-74
2021/06/01 02:32:13;;;;;;;9.95;7.57;;;9.40;94.60;;;;;;2056469;28;20525;-74
2021/06/01 02:33:16;;;;;;;9.73;8.02;;;9.50;94.50;;;;;;2064764;28;20096;-74
2021/06/01 02:34:18;;;;;;;9.07;7.40;;;9.40;94.50;;;;;;2063699;28;20058;-75
2021/06/01 02:35:33;;;;;;;9.43;7.65;;;9.40;94.40;;;;;;2054014;28;20842;-73
2021/06/01 02:36:36;;;;;;;9.45;7.18;;;9.40;94.40;;;;;;2063944;28;20026;-74
2021/06/01 02:37:42;;;;;;;9.77;7.97;;;9.40;94.50;;;;;;2056452;28;20054;-74
2021/06/01 02:38:43;;;;;;;9.23;7.32;;;9.40;94.50;;;;;;2056572;28;20062;-74
2021/06/01 02:39:47;;;;;;;10.60;7.32;;;9.40;94.40;;;;;;2055835;28;20030;-74
2021/06/01 02:40:49;;;;;;;9.15;7.38;;;9.40;94.40;;;;;;2056081;28;20038;-74
2021/06/01 02:41:50;;;;;;;8.15;7.32;;;9.50;94.30;;;;;;2056721;28;20054;-73
2021/06/01 02:42:51;;;;;;;8.93;7.30;;;9.40;94.20;;;;;;2056622;28;20656;-74
2021/06/01 02:43:52;;;;;;;9.40;7.22;;;9.40;94.20;;;;;;2047917;29;20088;-74
2021/06/01 02:44:53;;;;;;;9.90;7.43;;;9.40;94.30;;;;;;2047627;28;20511;-73
2021/06/01 02:45:54;;;;;;;9.75;7.20;;;9.40;94.20;;;;;;2039882;29;20047;-74
2021/06/01 02:46:54;;;;;;;9.93;7.20;;;9.40;94.30;;;;;;2040104;29;20490;-73
2021/06/01 02:47:56;;;;;;;10.80;7.53;;;9.40;94.30;;;;;;2056695;28;20134;-75
2021/06/01 02:48:57;;;;;;;11.70;7.60;;;9.40;94.30;;;;;;2056760;28;20023;-73
2021/06/01 02:50:00;;;;;;;9.55;7.30;;;9.40;94.20;;;;;;2056673;28;20033;-74
2021/06/01 02:51:17;;;;;;;8.70;6.97;;;9.40;94.30;;;;;;2056840;28;20117;-73
2021/06/01 02:52:19;;;;;;;9.50;7.50;;;9.40;94.20;;;;;;2056591;28;20476;-75
2021/06/01 02:53:21;;;;;;;8.93;7.22;;;9.40;94.00;;;;;;2056587;28;20450;-74
2021/06/01 02:54:23;;;;;;;9.18;7.35;;;9.40;93.90;;;;;;2056097;28;20034;-73
2021/06/01 02:55:25;;;;;;;9.10;7.38;;;9.40;93.90;;;;;;2056404;28;20030;-74
2021/06/01 02:56:27;;;;;;;9.02;7.10;;;9.40;93.80;;;;;;2056753;28;20493;-74
2021/06/01 02:57:28;;;;;;;10.15;7.50;;;9.40;93.80;;;;;;2056383;28;20090;-73
2021/06/01 02:58:28;;;;;;;9.73;7.70;;;9.40;93.70;;;;;;2056640;28;20113;-73
2021/06/01 02:59:30;;;;;;;8.30;7.40;;;9.40;94.10;;;;;;2047915;29;20603;-73
2021/06/01 03:00:31;;;;;;;8.93;7.20;;;9.40;93.80;;;;;;2048085;28;20035;-73
2021/06/01 03:01:31;;;;;;;10.65;7.03;;;9.40;93.70;;;;;;2056789;28;20411;-75
2021/06/01 03:02:32;;;;;;;10.38;7.38;;;9.40;93.70;;;;;;2056611;28;20027;-73
2021/06/01 03:03:33;;;;;;;9.23;7.43;;;9.40;93.70;;;;;;2056684;28;20522;-75
2021/06/01 03:04:33;;;;;;;9.65;6.90;;;9.50;93.60;;;;;;2058108;28;20054;-73
2021/06/01 03:05:34;;;;;;;8.75;7.28;;;9.40;93.60;;;;;;2055791;28;20082;-73
2021/06/01 03:06:35;;;;;;;10.02;7.88;;;9.40;93.60;;;;;;2063957;28;20030;-74
2021/06/01 03:07:41;;;;;;;10.68;7.70;;;9.40;93.70;;;;;;2064449;28;20049;-75
2021/06/01 03:08:41;;;;;;;9.02;7.22;;;9.50;93.70;;;;;;2055874;28;20031;-73
2021/06/01 03:09:42;;;;;;;11.95;7.40;;;9.40;93.60;;;;;;2055994;28;20035;-73
2021/06/01 03:10:42;;;;;;;10.32;7.45;;;9.50;93.70;;;;;;2064482;28;20022;-73
2021/06/01 03:11:45;;;;;;;8.63;7.35;;;9.50;93.60;;;;;;2063937;28;20118;-74
2021/06/01 03:13:01;;;;;;;9.15;7.43;;;9.50;93.50;;;;;;2063660;28;20605;-75
2021/06/01 03:14:01;;;;;;;9.10;7.25;;;9.50;93.40;;;;;;2063965;28;20506;-74
2021/06/01 03:15:03;;;;;;;9.25;7.53;;;9.50;93.40;;;;;;2063404;28;20069;-74
2021/06/01 03:16:04;;;;;;;11.05;7.50;;;9.50;93.50;;;;;;2063800;28;20510;-74
2021/06/01 03:17:05;;;;;;;11.88;7.72;;;9.40;93.40;;;;;;2063988;28;20022;-75
2021/06/01 03:18:05;;;;;;;8.73;7.18;;;9.50;93.80;;;;;;2063949;28;20468;-74
2021/06/01 03:19:06;;;;;;;10.18;7.57;;;9.50;93.50;;;;;;2064760;28;20076;-74
2021/06/01 03:20:07;;;;;;;9.13;7.38;;;9.50;93.50;;;;;;2063924;28;20387;-74
2021/06/01 03:21:09;;;;;;;9.63;7.65;;;9.50;93.30;;;;;;2063797;28;20022;-74
2021/06/01 03:22:10;;;;;;;8.43;7.05;;;9.50;93.20;;;;;;2063777;28;20045;-74
2021/06/01 03:23:11;;;;;;;9.63;7.07;;;9.50;93.10;;;;;;2063764;28;20045;-74
2021/06/01 03:24:11;;;;;;;10.45;7.03;;;9.50;93.10;;;;;;2064128;28;20083;-73
2021/06/01 03:25:13;;;;;;;10.43;7.57;;;9.50;93.10;;;;;;2064415;28;20065;-73
2021/06/01 03:26:14;;;;;;;9.57;7.10;;;9.50;93.20;;;;;;2063651;28;20030;-75
2021/06/01 03:27:15;;;;;;;11.55;7.50;;;9.50;93.10;;;;;;2063681;28;20034;-75
2021/06/01 03:28:16;;;;;;;11.23;7.90;;;9.50;93.10;;;;;;2064010;28;20031;-75
2021/06/01 03:29:16;;;;;;;10.48;7.55;;;9.60;93.20;;;;;;2064033;28;20109;-75
2021/06/01 03:30:17;;;;;;;10.45;7.20;;;9.60;93.10;;;;;;2063895;28;20037;-74
2021/06/01 03:31:18;;;;;;;9.07;6.72;;;9.60;93.00;;;;;;2064463;28;20044;-74
2021/06/01 03:32:19;;;;;;;9.27;7.50;;;9.60;92.80;;;;;;2064391;28;20048;-72
2021/06/01 03:33:20;;;;;;;11.82;7.85;;;9.60;92.90;;;;;;2063856;28;20405;-73
2021/06/01 03:34:22;;;;;;;9.18;7.22;;;9.70;92.80;;;;;;2063369;28;20034;-73
2021/06/01 03:35:24;;;;;;;9.32;7.57;;;9.70;92.80;;;;;;2056372;28;20031;-74
2021/06/01 03:36:24;;;;;;;10.23;7.80;;;9.70;92.60;;;;;;2047740;29;20033;-74
2021/06/01 03:37:25;;;;;;;8.88;7.07;;;9.70;92.60;;;;;;2054726;28;20023;-74
2021/06/01 03:38:26;;;;;;;9.50;7.00;;;9.70;92.60;;;;;;2055898;28;20366;-74
2021/06/01 03:39:28;;;;;;;11.35;7.10;;;9.70;92.60;;;;;;2047719;29;20023;-74
2021/06/01 03:40:29;;;;;;;10.15;7.38;;;9.70;92.60;;;;;;2048408;28;20435;-74
2021/06/01 03:41:30;;;;;;;12.00;7.05;;;9.80;92.50;;;;;;2055973;28;20047;-74
2021/06/01 03:42:31;;;;;;;11.27;7.25;;;9.80;92.40;;;;;;2056029;28;20027;-73
2021/06/01 03:43:31;;;;;;;11.20;7.43;;;9.80;92.30;;;;;;2064552;28;20054;-74
2021/06/01 03:44:32;;;;;;;9.60;7.13;;;9.90;92.30;;;;;;2064215;28;20022;-74
2021/06/01 03:45:33;;;;;;;10.57;7.40;;;9.90;92.30;;;;;;2055756;28;20082;-74
2021/06/01 03:46:34;;;;;;;8.93;7.10;;;9.90;92.10;;;;;;2057379;28;20041;-74
2021/06/01 03:47:34;;;;;;;9.35;7.40;;;10.00;92.10;;;;;;2065889;28;20035;-73
2021/06/01 03:48:35;;;;;;;9.68;7.00;;;10.00;92.10;;;;;;2066004;28;20026;-74
2021/06/01 03:49:36;;;;;;;9.02;7.03;;;10.00;92.00;;;;;;2066305;28;20026;-73
2021/06/01 03:50:37;;;;;;;10.50;7.10;;;10.10;91.90;;;;;;2065973;28;20484;-74
2021/06/01 03:51:38;;;;;;;8.18;6.70;;;10.10;91.80;;;;;;2066010;28;20026;-74
2021/06/01 03:52:38;;;;;;;9.48;7.35;;;10.10;91.60;;;;;;2065939;28;20034;-74
2021/06/01 03:53:39;;;;;;;10.43;7.18;;;10.10;91.50;;;;;;2066126;28;20165;-74
2021/06/01 03:54:39;;;;;;;12.70;7.38;;;10.10;91.50;;;;;;2065603;28;20403;-73
2021/06/01 03:55:40;;;;;;;9.25;7.10;;;10.20;91.60;;;;;;2066203;28;20081;-73
2021/06/01 03:56:41;;;;;;;8.85;7.15;;;10.20;91.40;;;;;;2057437;28;20049;-74
2021/06/01 03:57:43;;;;;;;9.88;7.05;;;10.30;91.30;;;;;;2057234;28;20030;-75
2021/06/01 03:58:45;;;;;;;11.30;7.18;;;10.40;91.20;;;;;;2057525;28;20011;-75
2021/06/01 03:59:45;;;;;;;8.32;7.10;;;10.40;91.30;;;;;;2057399;28;20542;-74
2021/06/01 04:00:46;;;;;;;10.43;7.18;;;10.50;90.80;;;;;;2065832;28;20022;-74
2021/06/01 04:01:47;;;;;;;9.20;6.68;;;10.50;90.40;;;;;;2066048;28;20026;-75
2021/06/01 04:02:48;;;;;;;11.52;7.32;;;10.60;90.20;;;;;;2066145;28;20030;-74
2021/06/01 04:03:48;;;;;;;8.93;7.00;;;10.70;90.30;;;;;;2066312;28;20022;-75
2021/06/01 04:04:49;;;;;;;9.95;6.97;;;10.80;90.20;;;;;;2062274;28;20503;-74
2021/06/01 04:05:50;;;;;;;8.48;6.53;;;11.00;89.90;;;;;;2058170;28;20022;-75
2021/06/01 04:06:51;;;;;;;9.73;7.00;;;11.10;88.90;;;;;;2060021;28;20053;-75
2021/06/01 04:07:51;;;;;;;8.98;6.80;;;11.30;87.90;;;;;;2066274;28;20101;-75
2021/06/01 04:08:53;;;;;;;8.25;6.60;;;11.30;87.20;;;;;;2066118;28;20030;-75
2021/06/01 04:09:53;;;;;;;8.40;6.80;;;11.50;86.60;;;;;;2066071;28;20022;-74
2021/06/01 04:10:54;;;;;;;8.60;6.15;;;11.60;86.10;;;;;;2065817;28;20546;-74
2021/06/01 04:11:55;;;;;;;11.88;7.20;;;11.90;85.90;;;;;;2065914;28;20393;-74
2021/06/01 04:12:55;;;;;;;7.90;6.25;;;12.20;83.60;;;;;;2065953;28;20022;-74
2021/06/01 04:13:56;;;;;;;8.63;6.47;;;12.60;82.00;;;;;;2065554;28;20401;-74
2021/06/01 04:14:56;;;;;;;8.10;6.22;;;13.00;80.50;;;;;;2056445;28;20082;-73
2021/06/01 04:15:57;;;;;;;6.65;5.78;;;13.50;78.10;;;;;;2056859;28;20023;-74
2021/06/01 04:16:58;;;;;;;7.05;6.05;;;13.90;75.70;;;;;;2057039;28;20497;-74
2021/06/01 04:17:58;;;;;;;7.55;5.95;;;14.20;73.50;;;;;;2057042;28;20026;-74
2021/06/01 04:18:59;;;;;;;7.78;5.95;;;14.50;71.90;;;;;;2065653;28;20418;-73
2021/06/01 04:20:01;;;;;;;8.05;5.65;;;14.80;70.20;;;;;;2065648;28;20113;-73
2021/06/01 04:21:01;;;;;;;7.00;5.70;;;15.10;69.00;;;;;;2065625;28;20026;-74
2021/06/01 04:22:02;;;;;;;7.97;6.05;;;15.20;67.70;;;;;;2065678;28;20795;-74
2021/06/01 04:23:03;;;;;;;7.03;5.50;;;15.50;66.80;;;;;;2065257;28;20026;-74
2021/06/01 04:24:05;;;;;;;6.95;5.65;;;15.60;65.90;;;;;;2065540;28;20057;-75
2021/06/01 04:25:07;;;;;;;8.15;5.78;;;15.80;64.80;;;;;;2065349;28;20445;-74
2021/06/01 04:26:07;;;;;;;7.88;5.78;;;15.90;64.20;;;;;;2065513;28;20120;-74
2021/06/01 04:27:08;;;;;;;7.75;5.63;;;16.00;63.40;;;;;;2065555;28;20030;-74
2021/06/01 04:28:09;;;;;;;7.05;5.70;;;16.10;62.70;;;;;;2065505;28;20433;-73
2021/06/01 04:29:09;;;;;;;7.50;5.47;;;16.10;62.40;;;;;;2065546;28;20042;-74
2021/06/01 04:30:11;;;;;;;6.22;5.60;;;16.20;62.10;;;;;;2065671;28;20034;-75
2021/06/01 04:31:12;;;;;;;7.60;5.78;;;16.20;61.70;;;;;;2066200;28;20398;-75
2021/06/01 04:32:12;;;;;;;6.47;5.43;;;16.20;61.40;;;;;;2066152;28;20034;-75
2021/06/01 04:33:14;;;;;;;6.82;5.50;;;16.20;61.10;;;;;;2057977;28;20744;-75
2021/06/01 04:34:15;;;;;;;9.65;6.03;;;16.20;61.40;;;;;;2057213;28;20027;-75
2021/06/01 04:35:16;;;;;;;7.13;5.47;;;16.20;61.30;;;;;;2064735;28;20822;-74
2021/06/01 04:36:16;;;;;;;8.35;5.40;;;16.20;61.50;;;;;;2063546;28;20076;-74
2021/06/01 04:37:17;;;;;;;9.52;5.40;;;16.20;61.40;;;;;;2059384;28;20096;-75
2021/06/01 04:38:17;;;;;;;6.03;5.07;;;16.30;61.50;;;;;;2065611;28;20092;-73
2021/06/01 04:39:18;;;;;;;6.95;5.63;;;16.30;61.40;;;;;;2065511;28;20104;-74
2021/06/01 04:40:19;;;;;;;8.55;5.80;;;16.30;61.30;;;;;;2065392;28;20026;-74
2021/06/01 04:41:20;;;;;;;8.25;5.60;;;16.40;61.30;;;;;;2056820;28;20027;-73
2021/06/01 04:42:20;;;;;;;6.43;5.70;;;16.40;61.00;;;;;;2056782;28;20031;-74
2021/06/01 04:43:21;;;;;;;8.43;6.45;;;16.50;60.80;;;;;;2065185;28;20394;-74
2021/06/01 04:44:21;;;;;;;8.25;6.32;;;16.50;60.40;;;;;;2065113;28;20101;-73
2021/06/01 04:45:22;;;;;;;9.07;6.22;;;16.60;59.80;;;;;;2065349;28;20069;-73
2021/06/01 04:46:22;;;;;;;8.05;6.18;;;16.80;59.70;;;;;;2065235;28;20398;-73
2021/06/01 04:47:23;;;;;;;8.27;5.63;;;16.90;59.20;;;;;;2056690;28;20125;-72
2021/06/01 04:48:24;;;;;;;7.22;5.90;;;17.20;58.60;;;;;;2056614;28;20042;-71
2021/06/01 04:49:24;;;;;;;6.20;5.20;;;17.30;57.80;;;;;;2065291;28;20031;-71
2021/06/01 04:50:25;;;;;;;9.30;5.50;;;17.40;57.30;;;;;;2065242;28;20042;-71
2021/06/01 04:51:26;;;;;;;7.80;5.53;;;17.60;56.90;;;;;;2065210;28;20077;-71
2021/06/01 04:52:27;;;;;;;8.23;5.90;;;17.60;56.70;;;;;;2065396;28;20034;-71
2021/06/01 04:53:27;;;;;;;9.02;5.90;;;17.70;56.50;;;;;;2065507;28;20421;-72
2021/06/01 04:54:28;;;;;;;10.02;5.93;;;17.60;56.10;;;;;;2064843;28;20880;-72
2021/06/01 04:55:28;;;;;;;7.63;5.30;;;17.60;56.00;;;;;;2065285;28;20026;-71
2021/06/01 04:56:30;;;;;;;7.43;5.40;;;17.60;56.10;;;;;;2065327;28;20134;-71
2021/06/01 04:57:31;;;;;;;8.90;5.85;;;17.70;56.00;;;;;;2064656;28;20030;-71
2021/06/01 04:58:31;;;;;;;7.25;5.80;;;17.80;55.60;;;;;;2056626;28;20034;-71
2021/06/01 04:59:32;;;;;;;10.50;5.60;;;17.80;55.50;;;;;;2056574;28;20042;-72
2021/06/01 05:00:32;;;;;;;8.07;5.45;;;17.90;55.40;;;;;;2065186;28;20034;-72
2021/06/01 05:01:33;;;;;;;6.03;5.43;;;18.00;55.00;;;;;;2065390;28;20097;-72
2021/06/01 05:02:36;;;;;;;6.85;5.30;;;18.20;54.90;;;;;;2065153;28;20101;-71
2021/06/01 05:03:38;;;;;;;7.00;5.30;;;18.30;54.40;;;;;;2065503;28;20080;-72
2021/06/01 05:04:38;;;;;;;7.18;5.25;;;18.50;53.80;;;;;;2063438;28;20760;-71
2021/06/01 05:05:39;;;;;;;6.10;5.18;;;18.60;53.50;;;;;;2065294;28;20038;-72
2021/06/01 05:06:40;;;;;;;9.23;5.82;;;18.80;53.10;;;;;;2065231;28;20026;-74
2021/06/01 05:07:40;;;;;;;12.23;5.82;;;18.80;52.70;;;;;;2065173;28;20038;-73
2021/06/01 05:08:41;;;;;;;7.85;5.57;;;18.70;52.80;;;;;;2065243;28;20027;-73
2021/06/01 05:09:41;;;;;;;6.93;5.45;;;18.70;53.10;;;;;;2065153;28;20049;-75
2021/06/01 05:10:42;;;;;;;9.57;5.47;;;18.90;52.90;;;;;;2065114;28;20054;-74
2021/06/01 05:11:42;;;;;;;6.57;5.03;;;19.00;52.30;;;;;;2065035;28;20542;-72
2021/06/01 05:12:43;;;;;;;6.88;5.53;;;19.10;52.00;;;;;;2065044;28;20086;-73
2021/06/01 05:13:44;;;;;;;8.25;5.00;;;19.00;51.60;;;;;;2065141;28;20053;-74
2021/06/01 05:14:44;;;;;;;7.50;5.53;;;19.10;51.70;;;;;;2063976;28;20441;-73
2021/06/01 05:15:45;;;;;;;7.38;5.03;;;19.00;51.90;;;;;;2064642;28;20105;-74
2021/06/01 05:16:46;;;;;;;8.32;5.50;;;19.20;52.10;;;;;;2065120;28;20030;-74
2021/06/01 05:17:47;;;;;;;6.22;5.13;;;19.30;51.60;;;;;;2065203;28;20026;-74
2021/06/01 05:18:48;;;;;;;10.27;5.10;;;19.40;51.20;;;;;;2056399;28;20031;-73
2021/06/01 05:19:48;;;;;;;7.65;5.32;;;19.30;51.00;;;;;;2056519;28;20454;-74
2021/06/01 05:20:49;;;;;;;6.22;5.13;;;19.40;51.00;;;;;;2056640;28;20031;-73
2021/06/01 05:21:50;;;;;;;8.43;5.53;;;19.40;51.00;;;;;;2056475;28;20018;-73
2021/06/01 05:22:50;;;;;;;6.30;5.03;;;19.40;50.80;;;;;;2056402;28;20038;-73
2021/06/01 05:23:51;;;;;;;8.13;5.50;;;19.40;50.70;;;;;;2056572;28;20102;-73
2021/06/01 05:24:52;;;;;;;7.47;5.28;;;19.60;50.50;;;;;;2056175;28;20035;-73
2021/06/01 05:25:54;;;;;;;6.72;4.90;;;19.70;50.20;;;;;;2066172;28;20022;-76
2021/06/01 05:26:55;;;;;;;6.70;4.95;;;19.80;50.10;;;;;;2056822;28;20368;-76
2021/06/01 05:27:56;;;;;;;7.55;5.13;;;19.90;49.80;;;;;;2057286;28;20062;-72
2021/06/01 05:28:56;;;;;;;7.47;5.15;;;19.90;49.50;;;;;;2057095;28;20038;-76
2021/06/01 05:30:01;;;;;;;7.75;4.95;;;20.00;49.40;;;;;;2048567;29;20090;-76
2021/06/01 05:31:14;;;;;;;6.03;5.10;;;20.10;49.60;;;;;;2049884;28;20027;-75